»·PEaware :: N728CS KBOI-KOTH

N728CS :: KBOI-KOTH

FLIGHT INFORMATION

Flight Status: Arrived
Operator: Privately registered:
United States
More flights under this callsign
Pilot: Chandler S. (807)
Aircraft: DORNIER 228
(D228)
More flights by this aircraft type
Origin: KBOI Boise Air Terminal/Gowen
United States
Destination: KOTH North Bend Mun
United States
More flights between these airports :: More routes between these airports
Route: +BOI SAILL BUEEL
File this flight plan on PilotEdge
Remarks:
Altitude:
(Current/Filed)
22,000ft
Speed:
(Current/Filed)
300kts
Departed: 12-Nov-17 10:28 AM
Arrived: 12-Nov-17 12:28 PM
Distance/Time
Traveled:
349nm/2:00
Distance/Time
To Go:
Arrived

Flight Plot

Page will automatically refresh every two minutes.

Flight plan parsing failed; only flown route is shown


Map Options




Map Legend


Flown Route
Filed Route
Departure Airport
Arrival Airport
Navaid (VOR, NDB)
Fix

Horizontal Profiles

Position Reports

Time Latitude Longitude Heading Altitude Ground
Speed
12-Nov-17 10:17 43.569918 -116.229394 183 2876ft 0kts
12-Nov-17 10:18 43.569918 -116.229394 183 2876ft 0kts
12-Nov-17 10:19 43.569918 -116.229394 183 2876ft 0kts
12-Nov-17 10:20 43.569918 -116.229394 183 2876ft 0kts
12-Nov-17 10:21 43.569918 -116.229394 183 2876ft 0kts
12-Nov-17 10:22 43.569918 -116.229394 183 2876ft 0kts
12-Nov-17 10:23 43.569918 -116.229394 183 2876ft 0kts
12-Nov-17 10:24 43.569918 -116.229394 183 2876ft 0kts
12-Nov-17 10:25 43.569918 -116.229394 183 2876ft 0kts
12-Nov-17 10:26 43.569918 -116.229394 183 2876ft 0kts
12-Nov-17 10:27 43.569825 -116.230405 273 2876ft 0kts
12-Nov-17 10:28 43.569667 -116.230711 209 2876ft 7kts
12-Nov-17 10:29 43.570819 -116.235148 294 2876ft 21kts
12-Nov-17 10:30 43.570925 -116.236239 229 2876ft 0kts
12-Nov-17 10:31 43.570925 -116.236239 229 2876ft 0kts
12-Nov-17 10:32 43.570739 -116.236472 212 2876ft 13kts
12-Nov-17 10:33 43.560046 -116.207597 109 3486ft 162kts
12-Nov-17 10:34 43.534823 -116.152173 176 5086ft 178kts
12-Nov-17 10:35 43.494612 -116.172181 263 7063ft 156kts
12-Nov-17 10:36 43.516113 -116.220319 294 9140ft 150kts
12-Nov-17 10:37 43.532742 -116.274675 283 11197ft 164kts
12-Nov-17 10:38 43.547156 -116.333917 280 13318ft 163kts
12-Nov-17 10:39 43.560862 -116.392120 278 15389ft 158kts
12-Nov-17 10:40 43.573882 -116.448087 276 17449ft 154kts
12-Nov-17 10:41 43.586414 -116.502182 275 19480ft 148kts
12-Nov-17 10:42 43.598360 -116.553593 273 21506ft 136kts
12-Nov-17 10:43 43.611033 -116.611464 276 22038ft 191kts
12-Nov-17 10:44 43.628368 -116.686408 277 22022ft 217kts
12-Nov-17 10:45 43.646880 -116.766525 277 22014ft 223kts
12-Nov-17 10:46 43.665652 -116.848594 277 22012ft 225kts
12-Nov-17 10:47 43.684487 -116.931316 277 22016ft 226kts
12-Nov-17 10:48 43.703069 -117.013311 277 22026ft 224kts
12-Nov-17 10:49 43.721579 -117.095358 277 22035ft 222kts
12-Nov-17 10:50 43.746076 -117.175018 282 22037ft 226kts
12-Nov-17 10:51 43.771053 -117.254492 282 22037ft 225kts
12-Nov-17 10:52 43.796029 -117.334053 282 22036ft 225kts
12-Nov-17 10:53 43.820848 -117.413328 282 22036ft 225kts
12-Nov-17 10:54 43.845708 -117.492958 282 22036ft 225kts
12-Nov-17 10:55 43.870517 -117.572674 282 22035ft 225kts
12-Nov-17 10:56 43.875379 -117.652800 259 22037ft 208kts
12-Nov-17 10:57 43.872388 -117.733045 259 22042ft 209kts
12-Nov-17 10:58 43.869096 -117.813702 259 22041ft 209kts
12-Nov-17 10:59 43.865703 -117.894251 259 22029ft 210kts
12-Nov-17 11:00 43.862238 -117.975012 259 22006ft 210kts
12-Nov-17 11:01 43.858728 -118.055682 259 21984ft 210kts
12-Nov-17 11:02 43.855142 -118.136530 259 21973ft 209kts
12-Nov-17 11:03 43.851526 -118.216995 259 21973ft 209kts
12-Nov-17 11:04 43.847849 -118.297283 259 21973ft 209kts
12-Nov-17 11:05 43.844117 -118.377725 259 21973ft 209kts
12-Nov-17 11:06 43.840340 -118.457831 259 21972ft 209kts
12-Nov-17 11:07 43.836500 -118.538071 259 21971ft 208kts
12-Nov-17 11:08 43.832616 -118.618174 259 21971ft 208kts
12-Nov-17 11:09 43.828703 -118.697270 258 21978ft 209kts
12-Nov-17 11:10 43.824721 -118.777423 258 21977ft 209kts
12-Nov-17 11:11 43.820671 -118.857855 258 21976ft 209kts
12-Nov-17 11:12 43.816569 -118.938014 257 21976ft 209kts
12-Nov-17 11:13 43.812386 -119.018439 257 21975ft 209kts
12-Nov-17 11:14 43.808237 -119.096572 257 21975ft 209kts
12-Nov-17 11:15 43.803934 -119.176674 257 21974ft 208kts
12-Nov-17 11:16 43.799607 -119.256615 257 21973ft 208kts
12-Nov-17 11:17 43.795212 -119.336587 257 21973ft 208kts
12-Nov-17 11:18 43.790780 -119.416336 257 21972ft 208kts
12-Nov-17 11:19 43.786280 -119.496295 257 21972ft 208kts
12-Nov-17 11:20 43.781727 -119.576197 257 21971ft 208kts
12-Nov-17 11:21 43.777158 -119.655351 256 21973ft 208kts
12-Nov-17 11:22 43.772505 -119.734952 256 21977ft 208kts
12-Nov-17 11:23 43.768146 -119.808879 256 21976ft 208kts
12-Nov-17 11:24 43.763394 -119.888454 256 21976ft 208kts
12-Nov-17 11:25 43.758571 -119.968304 256 21975ft 208kts
12-Nov-17 11:26 43.753690 -120.048013 256 21965ft 208kts
12-Nov-17 11:27 43.748746 -120.127829 256 21943ft 208kts
12-Nov-17 11:28 43.743750 -120.207790 256 21921ft 209kts
12-Nov-17 11:29 43.738702 -120.287549 256 21908ft 208kts
12-Nov-17 11:30 43.733604 -120.367345 256 21908ft 208kts
12-Nov-17 11:31 43.728442 -120.447043 256 21907ft 208kts
12-Nov-17 11:32 43.723263 -120.526288 256 21907ft 207kts
12-Nov-17 11:33 43.717996 -120.605928 256 21906ft 207kts
12-Nov-17 11:34 43.712693 -120.685030 256 21913ft 208kts
12-Nov-17 11:35 43.707334 -120.764630 256 21912ft 208kts
12-Nov-17 11:36 43.701906 -120.844262 256 21911ft 208kts
12-Nov-17 11:37 43.696412 -120.923999 256 21911ft 208kts
12-Nov-17 11:38 43.690872 -121.003418 256 21910ft 208kts
12-Nov-17 11:39 43.685299 -121.082635 256 21909ft 207kts
12-Nov-17 11:40 43.679653 -121.162083 256 21909ft 207kts
12-Nov-17 11:41 43.673995 -121.241093 256 21908ft 206kts
12-Nov-17 11:42 43.668289 -121.319947 256 21907ft 206kts
12-Nov-17 11:43 43.662552 -121.398418 256 21907ft 206kts
12-Nov-17 11:44 43.656727 -121.477234 256 21906ft 206kts
12-Nov-17 11:45 43.650881 -121.555726 256 21906ft 206kts
12-Nov-17 11:46 43.644961 -121.634372 256 21905ft 206kts
12-Nov-17 11:47 43.640599 -121.691687 255 21912ft 206kts
12-Nov-17 11:48 43.634587 -121.770513 255 21911ft 206kts
12-Nov-17 11:49 43.628500 -121.849367 256 21910ft 207kts
12-Nov-17 11:50 43.622371 -121.928148 256 21910ft 206kts
12-Nov-17 11:51 43.616206 -122.006649 256 21909ft 206kts
12-Nov-17 11:52 43.610455 -122.079223 256 21909ft 206kts
12-Nov-17 11:53 43.604175 -122.157823 256 21908ft 206kts
12-Nov-17 11:54 43.597844 -122.236313 256 21897ft 206kts
12-Nov-17 11:55 43.591458 -122.314917 255 21885ft 206kts
12-Nov-17 11:56 43.585021 -122.393383 256 21872ft 206kts
12-Nov-17 11:57 43.578533 -122.471862 255 21869ft 206kts
12-Nov-17 11:58 43.572023 -122.549897 256 21868ft 206kts
12-Nov-17 11:59 43.565560 -122.627054 255 22059ft 201kts
12-Nov-17 12:00 43.558991 -122.703966 255 22068ft 204kts
12-Nov-17 12:01 43.552336 -122.781925 255 22066ft 205kts
12-Nov-17 12:02 43.545602 -122.860102 255 22065ft 205kts
12-Nov-17 12:03 43.538839 -122.938411 255 22064ft 206kts
12-Nov-17 12:04 43.531929 -123.017119 254 21778ft 213kts
12-Nov-17 12:05 43.524668 -123.098767 255 20197ft 219kts
12-Nov-17 12:06 43.517128 -123.182946 255 18361ft 224kts
12-Nov-17 12:07 43.509464 -123.268064 256 16472ft 226kts
12-Nov-17 12:08 43.501654 -123.354203 256 14575ft 228kts
12-Nov-17 12:09 43.493782 -123.440423 257 12667ft 226kts
12-Nov-17 12:10 43.485869 -123.524780 259 10887ft 218kts
12-Nov-17 12:11 43.478372 -123.605509 262 9179ft 212kts
12-Nov-17 12:12 43.471179 -123.687829 257 7450ft 230kts
12-Nov-17 12:13 43.462916 -123.773084 257 7002ft 218kts
12-Nov-17 12:14 43.455215 -123.853432 257 6999ft 209kts
12-Nov-17 12:15 43.447655 -123.932340 257 6999ft 208kts
12-Nov-17 12:16 43.440097 -124.010606 256 6998ft 207kts
12-Nov-17 12:17 43.421927 -124.084908 246 6587ft 211kts
12-Nov-17 12:18 43.403011 -124.159081 246 5273ft 201kts
12-Nov-17 12:19 43.384595 -124.230913 247 3677ft 198kts
12-Nov-17 12:20 43.366701 -124.300558 248 2068ft 192kts
12-Nov-17 12:21 43.349990 -124.365839 247 2990ft 184kts
12-Nov-17 12:22 43.331741 -124.436268 247 3001ft 199kts
12-Nov-17 12:23 43.312914 -124.507945 241 2994ft 198kts
12-Nov-17 12:24 43.285404 -124.573174 237 2999ft 198kts
12-Nov-17 12:25 43.247348 -124.607032 140 2991ft 193kts
12-Nov-17 12:26 43.266243 -124.547685 35 3004ft 210kts
12-Nov-17 12:27 43.315075 -124.504996 35 2410ft 202kts
12-Nov-17 12:28 43.339731 -124.443025 63 2398ft 183kts
12-Nov-17 12:29 43.364697 -124.382411 63 1979ft 177kts
12-Nov-17 12:30 43.383437 -124.336960 63 1277ft 128kts
12-Nov-17 12:31 43.399819 -124.297517 65 813ft 100kts
12-Nov-17 12:32 43.413275 -124.264186 65 152ft 94kts
12-Nov-17 12:33 43.417509 -124.250813 81 22ft 8kts
12-Nov-17 12:34 43.416830 -124.249596 215 22ft 0kts
12-Nov-17 12:35 43.416830 -124.249596 215 22ft 0kts

Navigation Log

Ident Type
Flight plan parsing failed, navigation log unavailable